sensor_id;sensor_type;location;lat;lon;timestamp;pressure;altitude;pressure_sealevel;temperature;humidity
73106;BME280;61559;50.476;15.588;2022-08-19T00:00:33;96876.36;;;20.45;63.17
73106;BME280;61559;50.476;15.588;2022-08-19T00:03:07;96871.90;;;20.42;63.29
73106;BME280;61559;50.476;15.588;2022-08-19T00:05:39;96878.71;;;20.38;63.52
73106;BME280;61559;50.476;15.588;2022-08-19T00:08:10;96878.83;;;20.29;63.53
73106;BME280;61559;50.476;15.588;2022-08-19T00:10:41;96872.17;;;20.21;63.70
73106;BME280;61559;50.476;15.588;2022-08-19T00:13:12;96867.42;;;20.15;63.88
73106;BME280;61559;50.476;15.588;2022-08-19T00:15:43;96858.27;;;20.10;63.92
73106;BME280;61559;50.476;15.588;2022-08-19T00:18:15;96852.92;;;20.04;64.20
73106;BME280;61559;50.476;15.588;2022-08-19T00:20:46;96851.70;;;19.96;64.18
73106;BME280;61559;50.476;15.588;2022-08-19T00:23:18;96851.65;;;19.86;64.44
73106;BME280;61559;50.476;15.588;2022-08-19T00:25:49;96853.98;;;19.83;64.74
73106;BME280;61559;50.476;15.588;2022-08-19T00:28:27;96850.89;;;19.74;64.88
73106;BME280;61559;50.476;15.588;2022-08-19T00:31:01;96856.45;;;19.67;64.98
73106;BME280;61559;50.476;15.588;2022-08-19T00:33:33;96857.67;;;19.61;65.42
73106;BME280;61559;50.476;15.588;2022-08-19T00:36:07;96847.02;;;19.52;65.62
73106;BME280;61559;50.476;15.588;2022-08-19T00:38:40;96852.92;;;19.46;65.83
73106;BME280;61559;50.476;15.588;2022-08-19T00:41:15;96853.10;;;19.40;65.98
73106;BME280;61559;50.476;15.588;2022-08-19T00:43:58;96860.73;;;19.36;66.23
73106;BME280;61559;50.476;15.588;2022-08-19T00:46:29;96856.64;;;19.30;66.33
73106;BME280;61559;50.476;15.588;2022-08-19T00:49:01;96857.86;;;19.22;66.61
73106;BME280;61559;50.476;15.588;2022-08-19T00:51:33;96849.02;;;19.15;66.60
73106;BME280;61559;50.476;15.588;2022-08-19T00:54:05;96851.85;;;19.09;67.04
73106;BME280;61559;50.476;15.588;2022-08-19T00:56:36;96850.48;;;19.03;67.04
73106;BME280;61559;50.476;15.588;2022-08-19T00:59:10;96848.63;;;19.00;67.07
73106;BME280;61559;50.476;15.588;2022-08-19T01:02:02;96846.91;;;18.96;67.25
73106;BME280;61559;50.476;15.588;2022-08-19T01:04:34;96848.05;;;18.93;67.15
73106;BME280;61559;50.476;15.588;2022-08-19T01:07:05;96842.90;;;18.89;67.57
73106;BME280;61559;50.476;15.588;2022-08-19T01:09:36;96837.33;;;18.82;68.10
73106;BME280;61559;50.476;15.588;2022-08-19T01:12:08;96833.91;;;18.72;67.86
73106;BME280;61559;50.476;15.588;2022-08-19T01:14:40;96829.45;;;18.67;67.94
73106;BME280;61559;50.476;15.588;2022-08-19T01:17:12;96830.87;;;18.64;67.93
73106;BME280;61559;50.476;15.588;2022-08-19T01:19:46;96836.44;;;18.60;68.14
73106;BME280;61559;50.476;15.588;2022-08-19T01:25:01;96841.73;;;18.49;68.30
73106;BME280;61559;50.476;15.588;2022-08-19T01:27:43;96845.38;;;18.46;68.56
73106;BME280;61559;50.476;15.588;2022-08-19T01:30:20;96830.04;;;18.44;68.82
73106;BME280;61559;50.476;15.588;2022-08-19T01:32:52;96816.55;;;18.38;69.37
73106;BME280;61559;50.476;15.588;2022-08-19T01:35:26;96824.73;;;18.30;69.20
73106;BME280;61559;50.476;15.588;2022-08-19T01:38:01;96832.70;;;18.26;69.13
73106;BME280;61559;50.476;15.588;2022-08-19T01:40:35;96825.80;;;18.20;69.45
73106;BME280;61559;50.476;15.588;2022-08-19T01:43:06;96824.31;;;18.13;69.62
73106;BME280;61559;50.476;15.588;2022-08-19T01:45:38;96830.71;;;18.06;69.77
73106;BME280;61559;50.476;15.588;2022-08-19T01:48:10;96828.25;;;18.01;70.23
73106;BME280;61559;50.476;15.588;2022-08-19T01:50:41;96830.25;;;17.93;70.30
73106;BME280;61559;50.476;15.588;2022-08-19T01:53:13;96827.92;;;17.85;70.49
73106;BME280;61559;50.476;15.588;2022-08-19T01:55:44;96828.59;;;17.84;70.12
73106;BME280;61559;50.476;15.588;2022-08-19T01:58:21;96829.40;;;17.82;70.28
73106;BME280;61559;50.476;15.588;2022-08-19T02:00:53;96835.21;;;17.84;70.09
73106;BME280;61559;50.476;15.588;2022-08-19T02:03:24;96843.47;;;17.84;70.28
73106;BME280;61559;50.476;15.588;2022-08-19T02:05:59;96853.08;;;17.85;70.21
73106;BME280;61559;50.476;15.588;2022-08-19T02:08:35;96864.17;;;17.85;70.06
73106;BME280;61559;50.476;15.588;2022-08-19T02:11:07;96864.52;;;17.81;69.97
73106;BME280;61559;50.476;15.588;2022-08-19T02:13:38;96868.09;;;17.78;70.35
73106;BME280;61559;50.476;15.588;2022-08-19T02:16:10;96865.31;;;17.69;70.22
73106;BME280;61559;50.476;15.588;2022-08-19T02:18:41;96867.21;;;17.65;70.56
73106;BME280;61559;50.476;15.588;2022-08-19T02:21:12;96865.40;;;17.59;70.56
73106;BME280;61559;50.476;15.588;2022-08-19T02:23:44;96859.42;;;17.53;70.53
73106;BME280;61559;50.476;15.588;2022-08-19T02:26:15;96862.91;;;17.49;70.75
73106;BME280;61559;50.476;15.588;2022-08-19T02:28:47;96862.08;;;17.47;70.93
73106;BME280;61559;50.476;15.588;2022-08-19T02:31:21;96863.11;;;17.45;70.83
73106;BME280;61559;50.476;15.588;2022-08-19T02:33:55;96864.73;;;17.41;70.89
73106;BME280;61559;50.476;15.588;2022-08-19T02:36:27;96872.02;;;17.38;70.74
73106;BME280;61559;50.476;15.588;2022-08-19T02:38:58;96880.33;;;17.36;70.93
73106;BME280;61559;50.476;15.588;2022-08-19T02:41:32;96882.48;;;17.35;71.02
73106;BME280;61559;50.476;15.588;2022-08-19T02:44:04;96882.34;;;17.32;70.98
73106;BME280;61559;50.476;15.588;2022-08-19T02:46:54;96879.80;;;17.27;71.12
73106;BME280;61559;50.476;15.588;2022-08-19T02:49:26;96885.06;;;17.25;71.38
73106;BME280;61559;50.476;15.588;2022-08-19T02:52:04;96894.05;;;17.22;71.46
73106;BME280;61559;50.476;15.588;2022-08-19T02:54:35;96895.27;;;17.16;71.97
73106;BME280;61559;50.476;15.588;2022-08-19T02:57:07;96895.45;;;17.08;72.23
73106;BME280;61559;50.476;15.588;2022-08-19T02:59:38;96901.27;;;16.99;72.25
73106;BME280;61559;50.476;15.588;2022-08-19T03:02:09;96904.80;;;16.95;72.28
73106;BME280;61559;50.476;15.588;2022-08-19T03:04:40;96911.10;;;16.92;72.30
73106;BME280;61559;50.476;15.588;2022-08-19T03:07:14;96913.77;;;16.91;72.31
73106;BME280;61559;50.476;15.588;2022-08-19T03:09:45;96916.79;;;16.88;72.18
73106;BME280;61559;50.476;15.588;2022-08-19T03:12:17;96924.27;;;16.86;72.37
73106;BME280;61559;50.476;15.588;2022-08-19T03:14:48;96930.88;;;16.84;72.61
73106;BME280;61559;50.476;15.588;2022-08-19T03:17:18;96943.70;;;16.80;73.00
73106;BME280;61559;50.476;15.588;2022-08-19T03:19:50;96947.56;;;16.71;73.49
73106;BME280;61559;50.476;15.588;2022-08-19T03:22:21;96951.02;;;16.65;73.50
73106;BME280;61559;50.476;15.588;2022-08-19T03:24:52;96949.50;;;16.64;73.34
73106;BME280;61559;50.476;15.588;2022-08-19T03:27:24;96955.84;;;16.65;73.38
73106;BME280;61559;50.476;15.588;2022-08-19T03:30:03;96955.54;;;16.65;73.15
73106;BME280;61559;50.476;15.588;2022-08-19T03:32:40;96955.23;;;16.63;72.97
73106;BME280;61559;50.476;15.588;2022-08-19T03:35:14;96952.58;;;16.66;73.15
73106;BME280;61559;50.476;15.588;2022-08-19T03:37:46;96947.98;;;16.65;73.16
73106;BME280;61559;50.476;15.588;2022-08-19T03:40:17;96949.83;;;16.66;73.07
73106;BME280;61559;50.476;15.588;2022-08-19T03:42:48;96942.86;;;16.68;73.05
73106;BME280;61559;50.476;15.588;2022-08-19T03:45:19;96939.44;;;16.68;73.02
73106;BME280;61559;50.476;15.588;2022-08-19T03:47:50;96945.77;;;16.69;73.11
73106;BME280;61559;50.476;15.588;2022-08-19T03:50:22;96951.08;;;16.72;73.07
73106;BME280;61559;50.476;15.588;2022-08-19T03:52:54;96951.29;;;16.73;73.07
73106;BME280;61559;50.476;15.588;2022-08-19T03:55:25;96950.79;;;16.74;73.03
73106;BME280;61559;50.476;15.588;2022-08-19T03:57:56;96953.24;;;16.75;72.94
73106;BME280;61559;50.476;15.588;2022-08-19T04:00:27;96959.33;;;16.73;72.91
73106;BME280;61559;50.476;15.588;2022-08-19T04:02:59;96964.81;;;16.72;72.53
73106;BME280;61559;50.476;15.588;2022-08-19T04:05:30;96965.02;;;16.69;72.66
73106;BME280;61559;50.476;15.588;2022-08-19T04:08:01;96959.44;;;16.68;72.94
73106;BME280;61559;50.476;15.588;2022-08-19T04:10:36;96958.67;;;16.66;73.12
73106;BME280;61559;50.476;15.588;2022-08-19T04:13:07;96953.74;;;16.65;73.25
73106;BME280;61559;50.476;15.588;2022-08-19T04:15:42;96956.36;;;16.61;73.30
73106;BME280;61559;50.476;15.588;2022-08-19T04:18:14;96966.01;;;16.59;73.39
73106;BME280;61559;50.476;15.588;2022-08-19T04:20:47;96964.83;;;16.59;73.38
73106;BME280;61559;50.476;15.588;2022-08-19T04:23:18;96969.90;;;16.62;73.29
73106;BME280;61559;50.476;15.588;2022-08-19T04:25:49;96964.80;;;16.64;73.19
73106;BME280;61559;50.476;15.588;2022-08-19T04:28:21;96951.08;;;16.65;73.12
73106;BME280;61559;50.476;15.588;2022-08-19T04:30:53;96939.15;;;16.68;73.27
73106;BME280;61559;50.476;15.588;2022-08-19T04:33:26;96935.59;;;16.69;73.12
73106;BME280;61559;50.476;15.588;2022-08-19T04:35:57;96929.15;;;16.71;73.11
73106;BME280;61559;50.476;15.588;2022-08-19T04:38:29;96938.09;;;16.75;73.22
73106;BME280;61559;50.476;15.588;2022-08-19T04:41:02;96951.45;;;16.81;73.03
73106;BME280;61559;50.476;15.588;2022-08-19T04:43:51;96947.55;;;16.87;73.04
73106;BME280;61559;50.476;15.588;2022-08-19T04:46:22;96947.52;;;16.92;72.99
73106;BME280;61559;50.476;15.588;2022-08-19T04:49:09;96952.84;;;16.98;72.85
73106;BME280;61559;50.476;15.588;2022-08-19T04:51:44;96954.50;;;17.02;72.99
73106;BME280;61559;50.476;15.588;2022-08-19T04:54:17;96962.95;;;17.09;72.89
73106;BME280;61559;50.476;15.588;2022-08-19T04:57:08;96967.76;;;17.16;72.85
73106;BME280;61559;50.476;15.588;2022-08-19T04:59:40;96972.05;;;17.24;72.63
73106;BME280;61559;50.476;15.588;2022-08-19T05:02:11;96970.75;;;17.29;72.55
73106;BME280;61559;50.476;15.588;2022-08-19T05:04:42;96975.10;;;17.40;72.36
73106;BME280;61559;50.476;15.588;2022-08-19T05:07:13;96976.14;;;17.50;72.59
73106;BME280;61559;50.476;15.588;2022-08-19T05:09:44;96979.31;;;17.61;72.20
73106;BME280;61559;50.476;15.588;2022-08-19T05:12:26;96982.88;;;17.69;72.31
73106;BME280;61559;50.476;15.588;2022-08-19T05:14:59;96978.96;;;17.74;72.35
73106;BME280;61559;50.476;15.588;2022-08-19T05:17:30;96983.09;;;17.81;71.98
73106;BME280;61559;50.476;15.588;2022-08-19T05:20:09;96984.46;;;17.88;71.95
73106;BME280;61559;50.476;15.588;2022-08-19T05:22:57;96986.97;;;17.98;71.90
73106;BME280;61559;50.476;15.588;2022-08-19T05:25:28;96989.69;;;18.11;71.94
73106;BME280;61559;50.476;15.588;2022-08-19T05:28:00;96990.61;;;18.26;71.88
73106;BME280;61559;50.476;15.588;2022-08-19T05:30:31;96995.41;;;18.38;71.38
73106;BME280;61559;50.476;15.588;2022-08-19T05:33:16;97008.26;;;18.53;71.38
73106;BME280;61559;50.476;15.588;2022-08-19T05:35:47;97014.48;;;18.66;71.31
73106;BME280;61559;50.476;15.588;2022-08-19T05:38:19;97014.52;;;18.80;71.14
73106;BME280;61559;50.476;15.588;2022-08-19T05:40:50;97016.24;;;18.94;70.79
73106;BME280;61559;50.476;15.588;2022-08-19T05:43:21;97012.66;;;19.06;70.51
73106;BME280;61559;50.476;15.588;2022-08-19T05:45:52;97015.85;;;19.21;70.18
73106;BME280;61559;50.476;15.588;2022-08-19T05:48:23;97019.87;;;19.34;69.88
73106;BME280;61559;50.476;15.588;2022-08-19T05:50:55;97018.21;;;19.45;69.43
73106;BME280;61559;50.476;15.588;2022-08-19T05:53:26;97020.47;;;19.56;69.36
73106;BME280;61559;50.476;15.588;2022-08-19T05:55:57;97030.96;;;19.70;69.85
73106;BME280;61559;50.476;15.588;2022-08-19T05:58:28;97039.59;;;19.84;70.02
73106;BME280;61559;50.476;15.588;2022-08-19T06:01:00;97051.98;;;20.03;69.90
73106;BME280;61559;50.476;15.588;2022-08-19T06:03:36;97055.73;;;20.22;69.59
73106;BME280;61559;50.476;15.588;2022-08-19T06:06:11;97061.05;;;20.40;69.70
73106;BME280;61559;50.476;15.588;2022-08-19T06:08:43;97073.98;;;20.60;69.32
73106;BME280;61559;50.476;15.588;2022-08-19T06:11:21;97072.23;;;20.76;68.65
73106;BME280;61559;50.476;15.588;2022-08-19T06:13:54;97070.56;;;20.90;68.48
73106;BME280;61559;50.476;15.588;2022-08-19T06:16:27;97072.50;;;21.03;68.20
73106;BME280;61559;50.476;15.588;2022-08-19T06:19:04;97075.96;;;21.10;68.25
73106;BME280;61559;50.476;15.588;2022-08-19T06:21:38;97091.98;;;21.25;68.08
73106;BME280;61559;50.476;15.588;2022-08-19T06:24:13;97098.23;;;21.39;67.68
73106;BME280;61559;50.476;15.588;2022-08-19T06:26:46;97096.86;;;21.50;67.63
73106;BME280;61559;50.476;15.588;2022-08-19T06:29:24;97095.36;;;21.61;67.80
73106;BME280;61559;50.476;15.588;2022-08-19T06:31:58;97095.77;;;21.70;67.40
73106;BME280;61559;50.476;15.588;2022-08-19T06:34:32;97094.04;;;21.79;67.48
73106;BME280;61559;50.476;15.588;2022-08-19T06:37:03;97094.52;;;21.84;67.23
73106;BME280;61559;50.476;15.588;2022-08-19T06:39:38;97092.71;;;21.84;67.20
73106;BME280;61559;50.476;15.588;2022-08-19T06:42:09;97100.52;;;21.82;67.31
73106;BME280;61559;50.476;15.588;2022-08-19T06:44:48;97112.11;;;21.85;67.31
73106;BME280;61559;50.476;15.588;2022-08-19T06:47:22;97117.11;;;21.87;67.29
73106;BME280;61559;50.476;15.588;2022-08-19T06:49:58;97118.23;;;21.88;67.48
73106;BME280;61559;50.476;15.588;2022-08-19T06:52:33;97116.92;;;21.91;67.48
73106;BME280;61559;50.476;15.588;2022-08-19T06:55:06;97116.15;;;21.94;67.64
73106;BME280;61559;50.476;15.588;2022-08-19T06:57:37;97120.73;;;22.03;67.50
73106;BME280;61559;50.476;15.588;2022-08-19T07:00:11;97131.96;;;22.12;67.33
73106;BME280;61559;50.476;15.588;2022-08-19T07:02:43;97129.23;;;22.21;67.35
73106;BME280;61559;50.476;15.588;2022-08-19T07:05:24;97129.95;;;22.25;67.03
73106;BME280;61559;50.476;15.588;2022-08-19T07:07:55;97136.80;;;22.29;67.21
73106;BME280;61559;50.476;15.588;2022-08-19T07:10:33;97142.55;;;22.38;67.15
73106;BME280;61559;50.476;15.588;2022-08-19T07:13:11;97140.67;;;22.45;66.58
73106;BME280;61559;50.476;15.588;2022-08-19T07:15:42;97145.35;;;22.49;66.36
73106;BME280;61559;50.476;15.588;2022-08-19T07:18:16;97146.77;;;22.53;66.48
73106;BME280;61559;50.476;15.588;2022-08-19T07:20:47;97146.26;;;22.59;66.28
73106;BME280;61559;50.476;15.588;2022-08-19T07:23:18;97151.67;;;22.70;66.55
73106;BME280;61559;50.476;15.588;2022-08-19T07:25:52;97150.34;;;22.82;65.99
73106;BME280;61559;50.476;15.588;2022-08-19T07:28:23;97150.63;;;22.90;65.85
73106;BME280;61559;50.476;15.588;2022-08-19T07:30:56;97154.37;;;22.97;65.60
73106;BME280;61559;50.476;15.588;2022-08-19T07:33:27;97165.86;;;23.08;65.48
73106;BME280;61559;50.476;15.588;2022-08-19T07:36:01;97169.05;;;23.15;65.10
73106;BME280;61559;50.476;15.588;2022-08-19T07:38:33;97170.13;;;23.24;65.18
73106;BME280;61559;50.476;15.588;2022-08-19T07:41:05;97173.85;;;23.31;64.66
73106;BME280;61559;50.476;15.588;2022-08-19T07:43:36;97171.12;;;23.38;64.67
73106;BME280;61559;50.476;15.588;2022-08-19T07:46:07;97167.52;;;23.42;64.41
73106;BME280;61559;50.476;15.588;2022-08-19T07:48:43;97169.86;;;23.46;64.46
73106;BME280;61559;50.476;15.588;2022-08-19T07:51:17;97164.27;;;23.48;64.37
73106;BME280;61559;50.476;15.588;2022-08-19T07:54:05;97163.95;;;23.49;64.29
73106;BME280;61559;50.476;15.588;2022-08-19T07:56:37;97149.57;;;23.52;64.11
73106;BME280;61559;50.476;15.588;2022-08-19T07:59:09;97137.31;;;23.59;63.92
73106;BME280;61559;50.476;15.588;2022-08-19T08:01:41;97125.31;;;23.62;63.97
73106;BME280;61559;50.476;15.588;2022-08-19T08:04:12;97111.92;;;23.64;63.91
73106;BME280;61559;50.476;15.588;2022-08-19T08:07:01;97096.85;;;23.62;63.80
73106;BME280;61559;50.476;15.588;2022-08-19T08:10:00;97108.02;;;23.60;63.47
73106;BME280;61559;50.476;15.588;2022-08-19T08:12:35;97116.88;;;23.60;63.78
73106;BME280;61559;50.476;15.588;2022-08-19T08:15:13;97106.66;;;23.68;63.52
73106;BME280;61559;50.476;15.588;2022-08-19T08:17:46;97089.50;;;23.74;63.44
73106;BME280;61559;50.476;15.588;2022-08-19T08:20:20;97072.18;;;23.81;62.93
73106;BME280;61559;50.476;15.588;2022-08-19T08:22:51;97064.89;;;23.89;62.88
73106;BME280;61559;50.476;15.588;2022-08-19T08:25:38;97067.71;;;24.00;62.72
73106;BME280;61559;50.476;15.588;2022-08-19T08:28:09;97045.58;;;24.05;62.65
73106;BME280;61559;50.476;15.588;2022-08-19T08:30:47;97035.05;;;24.13;62.37
73106;BME280;61559;50.476;15.588;2022-08-19T08:33:22;97029.45;;;24.19;62.33
73106;BME280;61559;50.476;15.588;2022-08-19T08:36:07;97025.70;;;24.18;62.08
73106;BME280;61559;50.476;15.588;2022-08-19T08:38:39;97026.98;;;24.17;61.64
73106;BME280;61559;50.476;15.588;2022-08-19T08:41:16;97029.48;;;24.21;62.29
73106;BME280;61559;50.476;15.588;2022-08-19T08:43:51;97031.38;;;24.27;62.23
73106;BME280;61559;50.476;15.588;2022-08-19T08:46:27;97044.70;;;24.37;62.00
73106;BME280;61559;50.476;15.588;2022-08-19T08:49:04;97055.90;;;24.45;62.01
73106;BME280;61559;50.476;15.588;2022-08-19T08:51:42;97077.18;;;24.53;61.56
73106;BME280;61559;50.476;15.588;2022-08-19T08:54:19;97088.19;;;24.56;61.32
73106;BME280;61559;50.476;15.588;2022-08-19T08:56:52;97096.09;;;24.63;61.47
73106;BME280;61559;50.476;15.588;2022-08-19T08:59:28;97097.85;;;24.65;60.97
73106;BME280;61559;50.476;15.588;2022-08-19T09:02:04;97102.71;;;24.70;61.27
73106;BME280;61559;50.476;15.588;2022-08-19T09:04:37;97104.10;;;24.75;61.46
73106;BME280;61559;50.476;15.588;2022-08-19T09:07:20;97102.78;;;24.77;60.83
73106;BME280;61559;50.476;15.588;2022-08-19T09:10:15;97117.97;;;24.74;60.43
73106;BME280;61559;50.476;15.588;2022-08-19T09:12:56;97124.31;;;24.70;60.54
73106;BME280;61559;50.476;15.588;2022-08-19T09:15:36;97131.40;;;24.65;60.78
73106;BME280;61559;50.476;15.588;2022-08-19T09:18:09;97136.80;;;24.70;60.79
73106;BME280;61559;50.476;15.588;2022-08-19T09:20:48;97142.53;;;24.69;60.48
73106;BME280;61559;50.476;15.588;2022-08-19T09:23:19;97146.63;;;24.72;60.58
73106;BME280;61559;50.476;15.588;2022-08-19T09:25:55;97149.11;;;24.79;60.54
73106;BME280;61559;50.476;15.588;2022-08-19T09:28:27;97152.30;;;24.81;60.29
73106;BME280;61559;50.476;15.588;2022-08-19T09:31:00;97147.90;;;24.82;60.36
73106;BME280;61559;50.476;15.588;2022-08-19T09:33:31;97142.73;;;24.89;60.24
73106;BME280;61559;50.476;15.588;2022-08-19T09:36:09;97135.10;;;25.02;60.00
73106;BME280;61559;50.476;15.588;2022-08-19T09:38:40;97130.11;;;25.15;59.88
73106;BME280;61559;50.476;15.588;2022-08-19T09:41:13;97136.89;;;25.35;59.47
73106;BME280;61559;50.476;15.588;2022-08-19T09:43:48;97141.17;;;25.51;59.21
73106;BME280;61559;50.476;15.588;2022-08-19T09:46:22;97141.55;;;25.68;58.65
73106;BME280;61559;50.476;15.588;2022-08-19T09:48:54;97147.42;;;25.77;57.29
73106;BME280;61559;50.476;15.588;2022-08-19T09:51:32;97143.86;;;25.82;57.93
73106;BME280;61559;50.476;15.588;2022-08-19T09:54:04;97146.66;;;25.87;57.45
73106;BME280;61559;50.476;15.588;2022-08-19T09:56:39;97144.38;;;25.94;58.05
73106;BME280;61559;50.476;15.588;2022-08-19T09:59:11;97145.67;;;26.04;57.36
73106;BME280;61559;50.476;15.588;2022-08-19T10:01:42;97146.65;;;26.07;56.40
73106;BME280;61559;50.476;15.588;2022-08-19T10:04:14;97142.05;;;26.02;55.58
73106;BME280;61559;50.476;15.588;2022-08-19T10:06:51;97145.75;;;25.90;55.70
73106;BME280;61559;50.476;15.588;2022-08-19T10:09:26;97142.36;;;25.84;56.43
73106;BME280;61559;50.476;15.588;2022-08-19T10:12:06;97140.23;;;25.82;56.72
73106;BME280;61559;50.476;15.588;2022-08-19T10:14:39;97139.96;;;25.89;56.72
73106;BME280;61559;50.476;15.588;2022-08-19T10:17:10;97140.74;;;25.97;55.67
73106;BME280;61559;50.476;15.588;2022-08-19T10:19:50;97145.58;;;26.00;55.36
73106;BME280;61559;50.476;15.588;2022-08-19T10:22:24;97151.19;;;26.03;55.71
73106;BME280;61559;50.476;15.588;2022-08-19T10:24:56;97153.91;;;26.09;55.38
73106;BME280;61559;50.476;15.588;2022-08-19T10:27:27;97153.66;;;26.10;55.29
73106;BME280;61559;50.476;15.588;2022-08-19T10:30:01;97155.95;;;26.12;55.77
73106;BME280;61559;50.476;15.588;2022-08-19T10:32:31;97157.85;;;26.11;55.17
73106;BME280;61559;50.476;15.588;2022-08-19T10:35:04;97158.77;;;26.10;55.46
73106;BME280;61559;50.476;15.588;2022-08-19T10:37:38;97155.58;;;26.15;55.81
73106;BME280;61559;50.476;15.588;2022-08-19T10:40:26;97150.50;;;26.22;55.17
73106;BME280;61559;50.476;15.588;2022-08-19T10:42:57;97146.17;;;26.28;55.52
73106;BME280;61559;50.476;15.588;2022-08-19T10:45:28;97150.48;;;26.37;55.60
73106;BME280;61559;50.476;15.588;2022-08-19T10:47:59;97146.05;;;26.45;54.21
73106;BME280;61559;50.476;15.588;2022-08-19T10:50:30;97148.25;;;26.50;55.07
73106;BME280;61559;50.476;15.588;2022-08-19T10:53:19;97152.45;;;26.59;54.51
73106;BME280;61559;50.476;15.588;2022-08-19T10:55:55;97149.82;;;26.61;54.20
73106;BME280;61559;50.476;15.588;2022-08-19T10:58:43;97146.11;;;26.59;53.64
73106;BME280;61559;50.476;15.588;2022-08-19T11:01:14;97144.74;;;26.51;53.58
73106;BME280;61559;50.476;15.588;2022-08-19T11:03:45;97144.56;;;26.44;54.15
73106;BME280;61559;50.476;15.588;2022-08-19T11:06:17;97139.39;;;26.40;54.22
73106;BME280;61559;50.476;15.588;2022-08-19T11:08:48;97145.44;;;26.39;54.37
73106;BME280;61559;50.476;15.588;2022-08-19T11:11:20;97144.89;;;26.46;54.80
73106;BME280;61559;50.476;15.588;2022-08-19T11:13:51;97146.16;;;26.49;54.49
73106;BME280;61559;50.476;15.588;2022-08-19T11:16:24;97151.38;;;26.51;54.13
73106;BME280;61559;50.476;15.588;2022-08-19T11:18:59;97155.09;;;26.56;54.89
73106;BME280;61559;50.476;15.588;2022-08-19T11:21:35;97144.69;;;26.66;54.50
73106;BME280;61559;50.476;15.588;2022-08-19T11:24:09;97144.89;;;26.78;54.77
73106;BME280;61559;50.476;15.588;2022-08-19T11:26:41;97133.70;;;26.93;54.51
73106;BME280;61559;50.476;15.588;2022-08-19T11:29:14;97129.02;;;27.09;53.88
73106;BME280;61559;50.476;15.588;2022-08-19T11:31:47;97123.66;;;27.28;53.21
73106;BME280;61559;50.476;15.588;2022-08-19T11:34:21;97122.67;;;27.43;52.77
73106;BME280;61559;50.476;15.588;2022-08-19T11:36:52;97122.33;;;27.56;51.65
73106;BME280;61559;50.476;15.588;2022-08-19T11:39:28;97118.60;;;27.62;51.35
73106;BME280;61559;50.476;15.588;2022-08-19T11:42:01;97118.59;;;27.67;50.81
73106;BME280;61559;50.476;15.588;2022-08-19T11:44:32;97120.11;;;27.69;50.94
73106;BME280;61559;50.476;15.588;2022-08-19T11:47:05;97114.26;;;27.72;50.38
73106;BME280;61559;50.476;15.588;2022-08-19T11:49:37;97116.19;;;27.73;50.14
73106;BME280;61559;50.476;15.588;2022-08-19T11:52:08;97116.16;;;27.70;50.15
73106;BME280;61559;50.476;15.588;2022-08-19T11:54:40;97121.55;;;27.75;50.16
73106;BME280;61559;50.476;15.588;2022-08-19T11:57:14;97116.43;;;27.79;49.82
73106;BME280;61559;50.476;15.588;2022-08-19T11:59:50;97116.33;;;27.89;49.62
73106;BME280;61559;50.476;15.588;2022-08-19T12:02:22;97112.88;;;27.91;49.59
73106;BME280;61559;50.476;15.588;2022-08-19T12:04:53;97105.58;;;27.94;49.47
73106;BME280;61559;50.476;15.588;2022-08-19T12:07:24;97102.98;;;27.99;49.38
73106;BME280;61559;50.476;15.588;2022-08-19T12:09:55;97099.96;;;28.07;49.66
73106;BME280;61559;50.476;15.588;2022-08-19T12:12:27;97098.44;;;28.19;48.99
73106;BME280;61559;50.476;15.588;2022-08-19T12:14:58;97091.62;;;28.21;48.20
73106;BME280;61559;50.476;15.588;2022-08-19T12:17:29;97091.84;;;28.17;48.48
73106;BME280;61559;50.476;15.588;2022-08-19T12:20:01;97085.29;;;28.14;48.53
73106;BME280;61559;50.476;15.588;2022-08-19T12:22:32;97081.31;;;28.13;48.27
73106;BME280;61559;50.476;15.588;2022-08-19T12:25:05;97079.25;;;28.14;48.51
73106;BME280;61559;50.476;15.588;2022-08-19T12:27:36;97082.98;;;28.22;48.46
73106;BME280;61559;50.476;15.588;2022-08-19T12:30:12;97082.55;;;28.30;47.98
73106;BME280;61559;50.476;15.588;2022-08-19T12:32:44;97077.31;;;28.29;47.55
73106;BME280;61559;50.476;15.588;2022-08-19T12:35:15;97076.36;;;28.29;47.73
73106;BME280;61559;50.476;15.588;2022-08-19T12:37:48;97077.08;;;28.35;47.68
73106;BME280;61559;50.476;15.588;2022-08-19T12:40:26;97079.67;;;28.47;48.05
73106;BME280;61559;50.476;15.588;2022-08-19T12:42:57;97075.91;;;28.62;47.63
73106;BME280;61559;50.476;15.588;2022-08-19T12:45:29;97072.46;;;28.83;47.85
73106;BME280;61559;50.476;15.588;2022-08-19T12:48:00;97067.89;;;28.94;47.49
73106;BME280;61559;50.476;15.588;2022-08-19T12:50:52;97072.42;;;28.96;46.05
73106;BME280;61559;50.476;15.588;2022-08-19T12:53:24;97068.95;;;28.94;46.18
73106;BME280;61559;50.476;15.588;2022-08-19T12:55:58;97070.08;;;28.96;46.78
73106;BME280;61559;50.476;15.588;2022-08-19T12:58:30;97067.66;;;29.02;46.67
73106;BME280;61559;50.476;15.588;2022-08-19T13:01:07;97068.50;;;29.02;46.26
73106;BME280;61559;50.476;15.588;2022-08-19T13:03:39;97061.00;;;28.99;46.40
73106;BME280;61559;50.476;15.588;2022-08-19T13:06:10;97061.54;;;29.03;46.28
73106;BME280;61559;50.476;15.588;2022-08-19T13:08:41;97065.29;;;29.08;46.46
73106;BME280;61559;50.476;15.588;2022-08-19T13:11:17;97068.25;;;29.12;46.35
73106;BME280;61559;50.476;15.588;2022-08-19T13:13:50;97067.70;;;29.13;45.86
73106;BME280;61559;50.476;15.588;2022-08-19T13:16:22;97070.58;;;29.11;46.56
73106;BME280;61559;50.476;15.588;2022-08-19T13:18:53;97064.09;;;29.10;46.17
73106;BME280;61559;50.476;15.588;2022-08-19T13:21:26;97067.89;;;29.08;46.19
73106;BME280;61559;50.476;15.588;2022-08-19T13:23:59;97070.20;;;28.99;45.79
73106;BME280;61559;50.476;15.588;2022-08-19T13:26:31;97072.95;;;28.94;46.14